sensor_id;sensor_type;location;lat;lon;timestamp;temperature;humidity
36002;DHT22;22070;50.922;5.430;2023-04-03T00:00:49;4.20;99.90
36002;DHT22;22070;50.922;5.430;2023-04-03T00:03:16;4.20;99.90
36002;DHT22;22070;50.922;5.430;2023-04-03T00:05:41;4.20;99.90
36002;DHT22;22070;50.922;5.430;2023-04-03T00:08:07;4.10;99.90
36002;DHT22;22070;50.922;5.430;2023-04-03T00:10:35;4.00;99.90
36002;DHT22;22070;50.922;5.430;2023-04-03T00:13:06;4.00;99.90
36002;DHT22;22070;50.922;5.430;2023-04-03T00:15:32;3.90;99.90
36002;DHT22;22070;50.922;5.430;2023-04-03T00:17:57;4.00;99.90
36002;DHT22;22070;50.922;5.430;2023-04-03T00:20:23;4.00;99.90
36002;DHT22;22070;50.922;5.430;2023-04-03T00:22:49;4.00;99.90
36002;DHT22;22070;50.922;5.430;2023-04-03T00:25:14;4.00;99.90
36002;DHT22;22070;50.922;5.430;2023-04-03T00:27:40;4.00;99.90
36002;DHT22;22070;50.922;5.430;2023-04-03T00:30:08;3.90;99.90
36002;DHT22;22070;50.922;5.430;2023-04-03T00:32:34;3.90;99.90
36002;DHT22;22070;50.922;5.430;2023-04-03T00:35:00;4.00;99.90
36002;DHT22;22070;50.922;5.430;2023-04-03T00:37:25;3.90;99.90
36002;DHT22;22070;50.922;5.430;2023-04-03T00:39:51;3.90;99.90
36002;DHT22;22070;50.922;5.430;2023-04-03T00:42:17;3.90;99.90
36002;DHT22;22070;50.922;5.430;2023-04-03T00:47:13;4.00;99.90
36002;DHT22;22070;50.922;5.430;2023-04-03T00:49:40;4.00;99.90
36002;DHT22;22070;50.922;5.430;2023-04-03T00:52:08;3.90;99.90
36002;DHT22;22070;50.922;5.430;2023-04-03T00:54:36;3.90;99.90
36002;DHT22;22070;50.922;5.430;2023-04-03T00:57:03;3.80;99.90
36002;DHT22;22070;50.922;5.430;2023-04-03T00:59:36;3.80;99.90
36002;DHT22;22070;50.922;5.430;2023-04-03T01:02:04;3.80;99.90
36002;DHT22;22070;50.922;5.430;2023-04-03T01:04:31;3.80;99.90
36002;DHT22;22070;50.922;5.430;2023-04-03T01:07:02;3.70;99.90
36002;DHT22;22070;50.922;5.430;2023-04-03T01:09:30;3.70;99.90
36002;DHT22;22070;50.922;5.430;2023-04-03T01:14:45;3.70;99.90
36002;DHT22;22070;50.922;5.430;2023-04-03T01:25:39;3.60;99.90
36002;DHT22;22070;50.922;5.430;2023-04-03T01:28:07;3.60;99.90
36002;DHT22;22070;50.922;5.430;2023-04-03T01:30:47;3.70;99.90
36002;DHT22;22070;50.922;5.430;2023-04-03T01:33:15;3.70;99.90
36002;DHT22;22070;50.922;5.430;2023-04-03T01:35:41;3.70;99.90
36002;DHT22;22070;50.922;5.430;2023-04-03T01:38:07;3.50;99.90
36002;DHT22;22070;50.922;5.430;2023-04-03T01:40:32;3.50;99.90
36002;DHT22;22070;50.922;5.430;2023-04-03T01:42:58;3.60;99.90
36002;DHT22;22070;50.922;5.430;2023-04-03T01:45:24;3.60;99.90
36002;DHT22;22070;50.922;5.430;2023-04-03T01:47:49;3.60;99.90
36002;DHT22;22070;50.922;5.430;2023-04-03T01:50:15;3.60;99.90
36002;DHT22;22070;50.922;5.430;2023-04-03T01:52:41;3.60;99.90
36002;DHT22;22070;50.922;5.430;2023-04-03T01:55:07;3.60;99.90
36002;DHT22;22070;50.922;5.430;2023-04-03T01:57:32;3.50;99.90
36002;DHT22;22070;50.922;5.430;2023-04-03T01:59:58;3.60;99.90
36002;DHT22;22070;50.922;5.430;2023-04-03T02:02:24;3.60;99.90
36002;DHT22;22070;50.922;5.430;2023-04-03T02:04:50;3.60;99.90
36002;DHT22;22070;50.922;5.430;2023-04-03T02:07:15;3.50;99.90
36002;DHT22;22070;50.922;5.430;2023-04-03T02:09:41;3.40;99.90
36002;DHT22;22070;50.922;5.430;2023-04-03T02:12:07;3.40;99.90
36002;DHT22;22070;50.922;5.430;2023-04-03T02:14:32;3.30;99.90
36002;DHT22;22070;50.922;5.430;2023-04-03T02:16:59;3.30;99.90
36002;DHT22;22070;50.922;5.430;2023-04-03T02:19:26;3.40;99.90
36002;DHT22;22070;50.922;5.430;2023-04-03T02:21:52;3.40;99.90
36002;DHT22;22070;50.922;5.430;2023-04-03T02:24:18;3.40;99.90
36002;DHT22;22070;50.922;5.430;2023-04-03T02:26:44;3.30;99.90
36002;DHT22;22070;50.922;5.430;2023-04-03T02:29:10;3.40;99.90
36002;DHT22;22070;50.922;5.430;2023-04-03T02:31:35;3.50;99.90
36002;DHT22;22070;50.922;5.430;2023-04-03T02:34:01;3.50;99.90
36002;DHT22;22070;50.922;5.430;2023-04-03T02:36:27;3.40;99.90
36002;DHT22;22070;50.922;5.430;2023-04-03T02:38:52;3.40;99.90
36002;DHT22;22070;50.922;5.430;2023-04-03T02:41:18;3.40;99.90
36002;DHT22;22070;50.922;5.430;2023-04-03T02:43:43;3.20;99.90
36002;DHT22;22070;50.922;5.430;2023-04-03T02:46:09;3.20;99.90
36002;DHT22;22070;50.922;5.430;2023-04-03T02:48:35;3.10;99.90
36002;DHT22;22070;50.922;5.430;2023-04-03T02:51:01;3.20;99.90
36002;DHT22;22070;50.922;5.430;2023-04-03T02:53:27;3.00;99.90
36002;DHT22;22070;50.922;5.430;2023-04-03T02:55:52;2.90;99.90
36002;DHT22;22070;50.922;5.430;2023-04-03T02:58:18;3.00;99.90
36002;DHT22;22070;50.922;5.430;2023-04-03T03:00:43;2.90;99.90
36002;DHT22;22070;50.922;5.430;2023-04-03T03:03:09;2.80;99.90
36002;DHT22;22070;50.922;5.430;2023-04-03T03:05:35;2.70;99.90
36002;DHT22;22070;50.922;5.430;2023-04-03T03:08:01;2.70;99.90
36002;DHT22;22070;50.922;5.430;2023-04-03T03:10:27;2.50;99.90
36002;DHT22;22070;50.922;5.430;2023-04-03T03:12:52;2.60;99.90
36002;DHT22;22070;50.922;5.430;2023-04-03T03:15:18;2.40;99.90
36002;DHT22;22070;50.922;5.430;2023-04-03T03:17:45;2.40;99.90
36002;DHT22;22070;50.922;5.430;2023-04-03T03:20:11;2.40;99.90
36002;DHT22;22070;50.922;5.430;2023-04-03T03:22:38;2.30;99.90
36002;DHT22;22070;50.922;5.430;2023-04-03T03:25:04;2.50;99.90
36002;DHT22;22070;50.922;5.430;2023-04-03T03:27:30;2.50;99.90
36002;DHT22;22070;50.922;5.430;2023-04-03T03:29:55;2.40;99.90
36002;DHT22;22070;50.922;5.430;2023-04-03T03:32:21;2.30;99.90
36002;DHT22;22070;50.922;5.430;2023-04-03T03:34:47;2.20;99.90
36002;DHT22;22070;50.922;5.430;2023-04-03T03:37:12;2.30;99.90
36002;DHT22;22070;50.922;5.430;2023-04-03T03:39:38;2.30;99.90
36002;DHT22;22070;50.922;5.430;2023-04-03T03:42:04;2.30;99.90
36002;DHT22;22070;50.922;5.430;2023-04-03T03:44:29;2.30;99.90
36002;DHT22;22070;50.922;5.430;2023-04-03T03:46:55;2.30;99.90
36002;DHT22;22070;50.922;5.430;2023-04-03T03:49:21;2.20;99.90
36002;DHT22;22070;50.922;5.430;2023-04-03T03:51:47;2.10;99.90
36002;DHT22;22070;50.922;5.430;2023-04-03T03:54:13;2.20;99.90
36002;DHT22;22070;50.922;5.430;2023-04-03T03:56:39;2.20;99.90
36002;DHT22;22070;50.922;5.430;2023-04-03T03:59:05;2.30;99.90
36002;DHT22;22070;50.922;5.430;2023-04-03T04:01:31;2.20;99.90
36002;DHT22;22070;50.922;5.430;2023-04-03T04:03:57;2.20;99.90
36002;DHT22;22070;50.922;5.430;2023-04-03T04:06:23;2.10;99.90
36002;DHT22;22070;50.922;5.430;2023-04-03T04:08:49;2.20;99.90
36002;DHT22;22070;50.922;5.430;2023-04-03T04:11:14;2.10;99.90
36002;DHT22;22070;50.922;5.430;2023-04-03T04:13:40;2.00;99.90
36002;DHT22;22070;50.922;5.430;2023-04-03T04:16:06;1.90;99.90
36002;DHT22;22070;50.922;5.430;2023-04-03T04:18:32;2.00;99.90
36002;DHT22;22070;50.922;5.430;2023-04-03T04:20:58;2.00;99.90
36002;DHT22;22070;50.922;5.430;2023-04-03T04:23:24;2.00;99.90
36002;DHT22;22070;50.922;5.430;2023-04-03T04:25:49;2.00;99.90
36002;DHT22;22070;50.922;5.430;2023-04-03T04:28:16;1.90;99.90
36002;DHT22;22070;50.922;5.430;2023-04-03T04:30:42;1.80;99.90
36002;DHT22;22070;50.922;5.430;2023-04-03T04:33:08;1.80;99.90
36002;DHT22;22070;50.922;5.430;2023-04-03T04:35:34;1.70;99.90
36002;DHT22;22070;50.922;5.430;2023-04-03T04:37:59;1.70;99.90
36002;DHT22;22070;50.922;5.430;2023-04-03T04:40:26;1.80;99.90
36002;DHT22;22070;50.922;5.430;2023-04-03T04:42:52;1.70;99.90
36002;DHT22;22070;50.922;5.430;2023-04-03T04:45:18;1.60;99.90
36002;DHT22;22070;50.922;5.430;2023-04-03T04:47:44;1.50;99.90
36002;DHT22;22070;50.922;5.430;2023-04-03T04:50:10;1.50;99.90
36002;DHT22;22070;50.922;5.430;2023-04-03T04:52:36;1.50;99.90
36002;DHT22;22070;50.922;5.430;2023-04-03T04:55:02;1.50;99.90
36002;DHT22;22070;50.922;5.430;2023-04-03T04:57:28;1.50;99.90
36002;DHT22;22070;50.922;5.430;2023-04-03T04:59:53;1.60;99.90
36002;DHT22;22070;50.922;5.430;2023-04-03T05:02:19;1.60;99.90
36002;DHT22;22070;50.922;5.430;2023-04-03T05:04:45;1.60;99.90
36002;DHT22;22070;50.922;5.430;2023-04-03T05:07:10;1.90;99.90
36002;DHT22;22070;50.922;5.430;2023-04-03T05:09:36;2.00;99.90
36002;DHT22;22070;50.922;5.430;2023-04-03T05:12:02;2.10;99.90
36002;DHT22;22070;50.922;5.430;2023-04-03T05:14:28;2.10;99.90
36002;DHT22;22070;50.922;5.430;2023-04-03T05:16:54;2.10;99.90
36002;DHT22;22070;50.922;5.430;2023-04-03T05:19:23;2.00;99.90
36002;DHT22;22070;50.922;5.430;2023-04-03T05:21:48;2.00;99.90
36002;DHT22;22070;50.922;5.430;2023-04-03T05:24:15;2.00;99.90
36002;DHT22;22070;50.922;5.430;2023-04-03T05:26:41;2.10;99.90
36002;DHT22;22070;50.922;5.430;2023-04-03T05:29:07;2.00;99.90
36002;DHT22;22070;50.922;5.430;2023-04-03T05:31:32;2.10;99.90
36002;DHT22;22070;50.922;5.430;2023-04-03T05:33:58;2.10;99.90
36002;DHT22;22070;50.922;5.430;2023-04-03T05:36:24;2.10;99.90
36002;DHT22;22070;50.922;5.430;2023-04-03T05:38:51;2.20;99.90
36002;DHT22;22070;50.922;5.430;2023-04-03T05:41:16;2.20;99.90
36002;DHT22;22070;50.922;5.430;2023-04-03T05:43:42;2.30;99.90
36002;DHT22;22070;50.922;5.430;2023-04-03T05:46:12;2.40;99.90
36002;DHT22;22070;50.922;5.430;2023-04-03T05:48:38;2.50;99.90
36002;DHT22;22070;50.922;5.430;2023-04-03T05:51:04;2.50;99.90
36002;DHT22;22070;50.922;5.430;2023-04-03T05:53:32;2.50;99.90
36002;DHT22;22070;50.922;5.430;2023-04-03T05:55:58;2.50;99.90
36002;DHT22;22070;50.922;5.430;2023-04-03T05:58:24;2.50;99.90
36002;DHT22;22070;50.922;5.430;2023-04-03T06:00:49;2.60;99.90
36002;DHT22;22070;50.922;5.430;2023-04-03T06:03:15;2.60;99.90
36002;DHT22;22070;50.922;5.430;2023-04-03T06:05:42;2.70;99.90
36002;DHT22;22070;50.922;5.430;2023-04-03T06:08:08;2.70;99.90
36002;DHT22;22070;50.922;5.430;2023-04-03T06:10:34;2.70;99.90
36002;DHT22;22070;50.922;5.430;2023-04-03T06:13:00;2.80;99.90
36002;DHT22;22070;50.922;5.430;2023-04-03T06:15:26;2.80;99.90
36002;DHT22;22070;50.922;5.430;2023-04-03T06:17:52;2.90;99.90
36002;DHT22;22070;50.922;5.430;2023-04-03T06:20:18;2.90;99.90
36002;DHT22;22070;50.922;5.430;2023-04-03T06:22:43;2.90;99.90
36002;DHT22;22070;50.922;5.430;2023-04-03T06:25:09;3.00;99.90
36002;DHT22;22070;50.922;5.430;2023-04-03T06:27:35;3.00;99.90
36002;DHT22;22070;50.922;5.430;2023-04-03T06:30:01;3.00;99.90
36002;DHT22;22070;50.922;5.430;2023-04-03T06:32:27;3.10;99.90
36002;DHT22;22070;50.922;5.430;2023-04-03T06:34:52;3.20;99.90
36002;DHT22;22070;50.922;5.430;2023-04-03T06:37:21;3.20;99.90
36002;DHT22;22070;50.922;5.430;2023-04-03T06:39:48;3.20;99.90
36002;DHT22;22070;50.922;5.430;2023-04-03T06:42:13;3.30;99.90
36002;DHT22;22070;50.922;5.430;2023-04-03T06:44:39;3.30;99.90
36002;DHT22;22070;50.922;5.430;2023-04-03T06:47:05;3.30;99.90
36002;DHT22;22070;50.922;5.430;2023-04-03T06:49:31;3.30;99.90
36002;DHT22;22070;50.922;5.430;2023-04-03T06:51:57;3.30;99.90
36002;DHT22;22070;50.922;5.430;2023-04-03T06:54:23;3.40;99.90
36002;DHT22;22070;50.922;5.430;2023-04-03T06:56:50;3.40;99.90
36002;DHT22;22070;50.922;5.430;2023-04-03T06:59:16;3.40;99.90
36002;DHT22;22070;50.922;5.430;2023-04-03T07:01:42;3.40;99.90
36002;DHT22;22070;50.922;5.430;2023-04-03T07:04:08;3.50;99.90
36002;DHT22;22070;50.922;5.430;2023-04-03T07:06:34;3.50;99.90
36002;DHT22;22070;50.922;5.430;2023-04-03T07:09:00;3.50;99.90
36002;DHT22;22070;50.922;5.430;2023-04-03T07:11:26;3.60;99.90
36002;DHT22;22070;50.922;5.430;2023-04-03T07:13:53;3.70;99.90
36002;DHT22;22070;50.922;5.430;2023-04-03T07:16:19;3.70;99.90
36002;DHT22;22070;50.922;5.430;2023-04-03T07:18:45;3.80;99.90
36002;DHT22;22070;50.922;5.430;2023-04-03T07:21:11;3.90;99.90
36002;DHT22;22070;50.922;5.430;2023-04-03T07:23:37;3.90;99.90
36002;DHT22;22070;50.922;5.430;2023-04-03T07:26:03;3.90;99.90
36002;DHT22;22070;50.922;5.430;2023-04-03T07:28:28;4.00;99.90
36002;DHT22;22070;50.922;5.430;2023-04-03T07:31:04;4.00;99.90
36002;DHT22;22070;50.922;5.430;2023-04-03T07:33:32;4.10;99.90
36002;DHT22;22070;50.922;5.430;2023-04-03T07:35:58;4.20;99.90
36002;DHT22;22070;50.922;5.430;2023-04-03T07:38:23;4.30;99.90
36002;DHT22;22070;50.922;5.430;2023-04-03T07:40:50;4.30;99.90
36002;DHT22;22070;50.922;5.430;2023-04-03T07:43:18;4.40;99.90
36002;DHT22;22070;50.922;5.430;2023-04-03T07:45:44;4.50;99.90
36002;DHT22;22070;50.922;5.430;2023-04-03T07:48:11;4.60;99.90
36002;DHT22;22070;50.922;5.430;2023-04-03T07:50:39;4.60;99.90
36002;DHT22;22070;50.922;5.430;2023-04-03T07:53:05;4.70;99.90
36002;DHT22;22070;50.922;5.430;2023-04-03T07:55:32;4.80;99.90
36002;DHT22;22070;50.922;5.430;2023-04-03T07:57:58;4.90;99.90
36002;DHT22;22070;50.922;5.430;2023-04-03T08:00:23;4.80;99.90
36002;DHT22;22070;50.922;5.430;2023-04-03T08:02:50;4.90;99.90
36002;DHT22;22070;50.922;5.430;2023-04-03T08:05:18;5.00;99.90
36002;DHT22;22070;50.922;5.430;2023-04-03T08:07:44;5.10;99.90
36002;DHT22;22070;50.922;5.430;2023-04-03T08:10:10;5.20;99.90
36002;DHT22;22070;50.922;5.430;2023-04-03T08:12:35;5.20;99.90
36002;DHT22;22070;50.922;5.430;2023-04-03T08:15:03;5.10;99.90
36002;DHT22;22070;50.922;5.430;2023-04-03T08:17:29;5.20;99.90
36002;DHT22;22070;50.922;5.430;2023-04-03T08:19:55;5.30;99.90
36002;DHT22;22070;50.922;5.430;2023-04-03T08:22:20;5.40;99.90
36002;DHT22;22070;50.922;5.430;2023-04-03T08:24:46;5.40;99.90
36002;DHT22;22070;50.922;5.430;2023-04-03T08:27:12;5.40;99.90
36002;DHT22;22070;50.922;5.430;2023-04-03T08:29:37;5.50;99.90
36002;DHT22;22070;50.922;5.430;2023-04-03T08:32:04;5.60;99.90
36002;DHT22;22070;50.922;5.430;2023-04-03T08:34:30;5.50;99.90
36002;DHT22;22070;50.922;5.430;2023-04-03T08:37:00;5.60;99.90
36002;DHT22;22070;50.922;5.430;2023-04-03T08:39:26;5.60;99.90
36002;DHT22;22070;50.922;5.430;2023-04-03T08:41:55;5.70;99.90
36002;DHT22;22070;50.922;5.430;2023-04-03T08:47:28;5.70;99.90
36002;DHT22;22070;50.922;5.430;2023-04-03T08:50:11;5.70;99.90
36002;DHT22;22070;50.922;5.430;2023-04-03T08:52:44;5.70;99.90
36002;DHT22;22070;50.922;5.430;2023-04-03T08:58:01;6.00;99.90
36002;DHT22;22070;50.922;5.430;2023-04-03T09:00:30;6.10;99.90
36002;DHT22;22070;50.922;5.430;2023-04-03T09:02:57;6.10;99.90
36002;DHT22;22070;50.922;5.430;2023-04-03T09:05:43;6.20;99.90
36002;DHT22;22070;50.922;5.430;2023-04-03T09:08:30;6.40;99.90
36002;DHT22;22070;50.922;5.430;2023-04-03T09:16:57;6.70;99.90
36002;DHT22;22070;50.922;5.430;2023-04-03T09:24:49;6.90;99.90
36002;DHT22;22070;50.922;5.430;2023-04-03T09:27:15;7.00;99.90
36002;DHT22;22070;50.922;5.430;2023-04-03T09:29:44;6.90;99.90
36002;DHT22;22070;50.922;5.430;2023-04-03T09:32:35;6.80;99.90
36002;DHT22;22070;50.922;5.430;2023-04-03T09:35:15;7.00;99.90
36002;DHT22;22070;50.922;5.430;2023-04-03T09:37:43;6.90;99.90
36002;DHT22;22070;50.922;5.430;2023-04-03T09:40:37;6.90;99.90
36002;DHT22;22070;50.922;5.430;2023-04-03T09:43:26;7.00;99.90
36002;DHT22;22070;50.922;5.430;2023-04-03T09:45:53;7.00;99.90
36002;DHT22;22070;50.922;5.430;2023-04-03T09:48:21;7.00;99.90
36002;DHT22;22070;50.922;5.430;2023-04-03T09:53:42;7.00;99.90
36002;DHT22;22070;50.922;5.430;2023-04-03T09:59:08;7.00;99.90
36002;DHT22;22070;50.922;5.430;2023-04-03T10:01:37;7.10;99.90
36002;DHT22;22070;50.922;5.430;2023-04-03T10:06:37;7.20;99.90
36002;DHT22;22070;50.922;5.430;2023-04-03T10:09:22;7.20;99.90
36002;DHT22;22070;50.922;5.430;2023-04-03T10:14:24;7.30;99.90
36002;DHT22;22070;50.922;5.430;2023-04-03T10:30:39;7.40;99.90
36002;DHT22;22070;50.922;5.430;2023-04-03T10:33:23;7.50;99.90
36002;DHT22;22070;50.922;5.430;2023-04-03T10:36:24;7.60;99.90
36002;DHT22;22070;50.922;5.430;2023-04-03T10:47:28;7.70;99.90
36002;DHT22;22070;50.922;5.430;2023-04-03T10:55:48;7.90;99.90
36002;DHT22;22070;50.922;5.430;2023-04-03T10:58:26;7.90;99.90
36002;DHT22;22070;50.922;5.430;2023-04-03T11:00:58;7.90;99.90
36002;DHT22;22070;50.922;5.430;2023-04-03T11:03:47;8.00;99.90
36002;DHT22;22070;50.922;5.430;2023-04-03T11:06:16;8.00;99.90
36002;DHT22;22070;50.922;5.430;2023-04-03T11:09:05;8.00;99.90
36002;DHT22;22070;50.922;5.430;2023-04-03T11:11:38;8.00;99.90
36002;DHT22;22070;50.922;5.430;2023-04-03T11:14:34;8.00;99.90
36002;DHT22;22070;50.922;5.430;2023-04-03T11:20:18;8.20;99.90
36002;DHT22;22070;50.922;5.430;2023-04-03T11:22:50;8.40;99.90
36002;DHT22;22070;50.922;5.430;2023-04-03T11:25:25;8.40;99.90
36002;DHT22;22070;50.922;5.430;2023-04-03T11:33:23;8.50;99.90
36002;DHT22;22070;50.922;5.430;2023-04-03T11:35:57;8.60;99.90
36002;DHT22;22070;50.922;5.430;2023-04-03T11:38:44;8.60;99.90
36002;DHT22;22070;50.922;5.430;2023-04-03T11:41:11;8.60;99.90
36002;DHT22;22070;50.922;5.430;2023-04-03T11:43:43;8.60;99.90
36002;DHT22;22070;50.922;5.430;2023-04-03T11:46:20;8.80;99.90
36002;DHT22;22070;50.922;5.430;2023-04-03T11:48:48;8.80;99.90
36002;DHT22;22070;50.922;5.430;2023-04-03T11:53:43;8.70;99.90
36002;DHT22;22070;50.922;5.430;2023-04-03T12:01:55;8.70;99.90
36002;DHT22;22070;50.922;5.430;2023-04-03T12:04:25;8.70;99.90
36002;DHT22;22070;50.922;5.430;2023-04-03T12:06:59;8.70;99.90
36002;DHT22;22070;50.922;5.430;2023-04-03T12:09:35;8.80;99.90
36002;DHT22;22070;50.922;5.430;2023-04-03T12:12:29;9.00;99.90
36002;DHT22;22070;50.922;5.430;2023-04-03T12:15:11;9.00;99.90
36002;DHT22;22070;50.922;5.430;2023-04-03T12:17:37;9.00;99.90
36002;DHT22;22070;50.922;5.430;2023-04-03T12:20:45;9.00;99.90
36002;DHT22;22070;50.922;5.430;2023-04-03T12:23:35;9.00;99.90
36002;DHT22;22070;50.922;5.430;2023-04-03T12:26:22;9.10;99.90
36002;DHT22;22070;50.922;5.430;2023-04-03T12:28:51;9.00;99.90
36002;DHT22;22070;50.922;5.430;2023-04-03T12:31:19;9.10;99.90
36002;DHT22;22070;50.922;5.430;2023-04-03T12:34:07;9.10;99.90
36002;DHT22;22070;50.922;5.430;2023-04-03T12:37:09;9.00;99.90
36002;DHT22;22070;50.922;5.430;2023-04-03T12:39:50;9.30;99.90
36002;DHT22;22070;50.922;5.430;2023-04-03T12:45:23;9.20;99.90
36002;DHT22;22070;50.922;5.430;2023-04-03T12:47:51;9.30;99.90
36002;DHT22;22070;50.922;5.430;2023-04-03T12:50:23;9.30;99.90
36002;DHT22;22070;50.922;5.430;2023-04-03T12:53:23;9.30;99.90
36002;DHT22;22070;50.922;5.430;2023-04-03T12:55:57;9.40;99.90
36002;DHT22;22070;50.922;5.430;2023-04-03T12:58:43;9.40;99.90
36002;DHT22;22070;50.922;5.430;2023-04-03T13:01:15;9.50;99.90
36002;DHT22;22070;50.922;5.430;2023-04-03T13:03:45;9.40;99.90
36002;DHT22;22070;50.922;5.430;2023-04-03T13:06:30;9.60;99.90
36002;DHT22;22070;50.922;5.430;2023-04-03T13:08:59;9.70;99.90
36002;DHT22;22070;50.922;5.430;2023-04-03T13:11:58;9.60;99.90
36002;DHT22;22070;50.922;5.430;2023-04-03T13:14:26;9.70;99.90
36002;DHT22;22070;50.922;5.430;2023-04-03T13:17:06;9.70;99.90
36002;DHT22;22070;50.922;5.430;2023-04-03T13:19:36;9.80;99.90
36002;DHT22;22070;50.922;5.430;2023-04-03T13:22:04;10.00;99.90
36002;DHT22;22070;50.922;5.430;2023-04-03T13:24:34;9.90;99.90
36002;DHT22;22070;50.922;5.430;2023-04-03T13:27:02;10.00;99.90
36002;DHT22;22070;50.922;5.430;2023-04-03T13:29:32;10.10;99.90
36002;DHT22;22070;50.922;5.430;2023-04-03T13:31:59;10.20;99.90
36002;DHT22;22070;50.922;5.430;2023-04-03T13:34:28;10.30;99.90
36002;DHT22;22070;50.922;5.430;2023-04-03T13:36:58;10.30;99.90
36002;DHT22;22070;50.922;5.430;2023-04-03T13:39:27;10.30;99.90
36002;DHT22;22070;50.922;5.430;2023-04-03T13:41:59;10.40;99.90
36002;DHT22;22070;50.922;5.430;2023-04-03T13:44:31;10.50;99.90
36002;DHT22;22070;50.922;5.430;2023-04-03T13:47:00;10.70;99.90
36002;DHT22;22070;50.922;5.430;2023-04-03T13:49:39;10.90;99.90
36002;DHT22;22070;50.922;5.430;2023-04-03T13:54:47;10.90;99.90
36002;DHT22;22070;50.922;5.430;2023-04-03T13:57:16;11.00;99.90
36002;DHT22;22070;50.922;5.430;2023-04-03T13:59:42;11.00;99.90
36002;DHT22;22070;50.922;5.430;2023-04-03T14:07:06;11.00;99.90
36002;DHT22;22070;50.922;5.430;2023-04-03T14:09:31;11.00;99.90
36002;DHT22;22070;50.922;5.430;2023-04-03T14:12:02;11.00;99.90
36002;DHT22;22070;50.922;5.430;2023-04-03T14:14:32;11.10;99.90
36002;DHT22;22070;50.922;5.430;2023-04-03T14:17:00;11.30;99.90
36002;DHT22;22070;50.922;5.430;2023-04-03T14:19:29;11.20;99.90
36002;DHT22;22070;50.922;5.430;2023-04-03T14:21:56;11.20;99.90
36002;DHT22;22070;50.922;5.430;2023-04-03T14:24:23;11.30;99.90
36002;DHT22;22070;50.922;5.430;2023-04-03T14:26:51;11.30;99.90
36002;DHT22;22070;50.922;5.430;2023-04-03T14:29:18;11.40;99.90
36002;DHT22;22070;50.922;5.430;2023-04-03T14:31:45;11.50;99.90
36002;DHT22;22070;50.922;5.430;2023-04-03T14:34:12;11.50;99.90
36002;DHT22;22070;50.922;5.430;2023-04-03T14:36:39;11.50;99.90
36002;DHT22;22070;50.922;5.430;2023-04-03T14:39:06;11.60;99.90
36002;DHT22;22070;50.922;5.430;2023-04-03T14:41:33;11.90;99.90
36002;DHT22;22070;50.922;5.430;2023-04-03T14:43:58;12.00;99.90
36002;DHT22;22070;50.922;5.430;2023-04-03T14:46:36;12.10;99.90
36002;DHT22;22070;50.922;5.430;2023-04-03T14:49:03;12.10;99.90
36002;DHT22;22070;50.922;5.430;2023-04-03T14:51:33;12.00;99.90
36002;DHT22;22070;50.922;5.430;2023-04-03T14:53:59;12.00;99.90
36002;DHT22;22070;50.922;5.430;2023-04-03T14:56:27;12.20;99.90
36002;DHT22;22070;50.922;5.430;2023-04-03T14:58:58;12.30;99.90
36002;DHT22;22070;50.922;5.430;2023-04-03T15:01:25;12.40;99.90
36002;DHT22;22070;50.922;5.430;2023-04-03T15:03:51;12.40;99.90
36002;DHT22;22070;50.922;5.430;2023-04-03T15:06:16;12.40;99.90
36002;DHT22;22070;50.922;5.430;2023-04-03T15:08:43;12.40;99.90
36002;DHT22;22070;50.922;5.430;2023-04-03T15:11:10;12.60;99.90
36002;DHT22;22070;50.922;5.430;2023-04-03T15:13:37;12.60;99.90
36002;DHT22;22070;50.922;5.430;2023-04-03T15:16:03;12.60;99.90
36002;DHT22;22070;50.922;5.430;2023-04-03T15:18:35;12.80;99.90
36002;DHT22;22070;50.922;5.430;2023-04-03T15:21:03;12.90;99.90
36002;DHT22;22070;50.922;5.430;2023-04-03T15:23:28;12.70;99.90
36002;DHT22;22070;50.922;5.430;2023-04-03T15:25:55;12.90;99.90
36002;DHT22;22070;50.922;5.430;2023-04-03T15:28:31;12.90;99.90
36002;DHT22;22070;50.922;5.430;2023-04-03T15:30:58;13.00;99.90
36002;DHT22;22070;50.922;5.430;2023-04-03T15:33:25;13.10;99.90
36002;DHT22;22070;50.922;5.430;2023-04-03T15:35:50;13.10;99.90
36002;DHT22;22070;50.922;5.430;2023-04-03T15:38:16;13.00;99.90
36002;DHT22;22070;50.922;5.430;2023-04-03T15:40:42;13.00;99.90
36002;DHT22;22070;50.922;5.430;2023-04-03T15:43:09;13.10;99.90
36002;DHT22;22070;50.922;5.430;2023-04-03T15:45:36;13.30;99.90
36002;DHT22;22070;50.922;5.430;2023-04-03T15:48:06;13.30;99.90
36002;DHT22;22070;50.922;5.430;2023-04-03T15:50:33;13.40;99.90
36002;DHT22;22070;50.922;5.430;2023-04-03T15:52:59;13.50;99.90
36002;DHT22;22070;50.922;5.430;2023-04-03T15:55:28;13.40;99.90
36002;DHT22;22070;50.922;5.430;2023-04-03T15:57:54;13.30;99.90
36002;DHT22;22070;50.922;5.430;2023-04-03T16:00:21;13.40;99.90
36002;DHT22;22070;50.922;5.430;2023-04-03T16:02:47;13.70;99.90
36002;DHT22;22070;50.922;5.430;2023-04-03T16:05:13;13.90;99.90
36002;DHT22;22070;50.922;5.430;2023-04-03T16:07:41;13.90;99.90
36002;DHT22;22070;50.922;5.430;2023-04-03T16:10:08;14.00;99.80
36002;DHT22;22070;50.922;5.430;2023-04-03T16:12:34;14.00;99.50
36002;DHT22;22070;50.922;5.430;2023-04-03T16:15:02;14.10;99.90
36002;DHT22;22070;50.922;5.430;2023-04-03T16:17:28;14.30;99.60
36002;DHT22;22070;50.922;5.430;2023-04-03T16:19:56;14.20;99.90
36002;DHT22;22070;50.922;5.430;2023-04-03T16:22:26;14.10;98.50
36002;DHT22;22070;50.922;5.430;2023-04-03T16:24:52;14.10;99.20
36002;DHT22;22070;50.922;5.430;2023-04-03T16:27:18;14.10;98.10
36002;DHT22;22070;50.922;5.430;2023-04-03T16:29:44;14.10;98.70
36002;DHT22;22070;50.922;5.430;2023-04-03T16:32:09;14.40;99.10
36002;DHT22;22070;50.922;5.430;2023-04-03T16:34:35;14.80;99.30
36002;DHT22;22070;50.922;5.430;2023-04-03T16:37:01;14.90;98.50
36002;DHT22;22070;50.922;5.430;2023-04-03T16:39:27;14.90;97.20
36002;DHT22;22070;50.922;5.430;2023-04-03T16:41:52;15.00;97.40
36002;DHT22;22070;50.922;5.430;2023-04-03T16:44:18;14.90;97.70
36002;DHT22;22070;50.922;5.430;2023-04-03T16:46:44;14.60;97.50
36002;DHT22;22070;50.922;5.430;2023-04-03T16:49:10;14.60;96.70
36002;DHT22;22070;50.922;5.430;2023-04-03T16:51:35;14.70;97.40
36002;DHT22;22070;50.922;5.430;2023-04-03T16:54:01;14.70;95.90
36002;DHT22;22070;50.922;5.430;2023-04-03T16:56:27;14.80;96.90
36002;DHT22;22070;50.922;5.430;2023-04-03T16:58:53;14.60;96.20
36002;DHT22;22070;50.922;5.430;2023-04-03T17:01:20;14.70;97.10
36002;DHT22;22070;50.922;5.430;2023-04-03T17:03:46;14.50;97.00
36002;DHT22;22070;50.922;5.430;2023-04-03T17:06:17;14.60;96.50
36002;DHT22;22070;50.922;5.430;2023-04-03T17:08:47;14.40;96.60
36002;DHT22;22070;50.922;5.430;2023-04-03T17:11:14;14.30;96.80
36002;DHT22;22070;50.922;5.430;2023-04-03T17:13:39;14.00;96.40
36002;DHT22;22070;50.922;5.430;2023-04-03T17:16:08;13.80;96.50
36002;DHT22;22070;50.922;5.430;2023-04-03T17:18:35;13.60;96.70
36002;DHT22;22070;50.922;5.430;2023-04-03T17:21:02;13.30;96.90
36002;DHT22;22070;50.922;5.430;2023-04-03T17:23:28;13.30;97.00
36002;DHT22;22070;50.922;5.430;2023-04-03T17:25:54;13.10;96.70
36002;DHT22;22070;50.922;5.430;2023-04-03T17:28:23;13.00;97.20